createdAt,value
2017-07-24T00:00:08.847Z,19.21
2017-07-24T00:00:35.028Z,19.29
2017-07-24T00:01:01.156Z,19.22
2017-07-24T00:01:27.321Z,19.22
2017-07-24T00:01:53.449Z,19.18
2017-07-24T00:02:19.583Z,19.15
2017-07-24T00:02:45.674Z,19.27
2017-07-24T00:03:11.845Z,19.29
2017-07-24T00:03:37.940Z,19.29
2017-07-24T00:04:04.046Z,19.26
2017-07-24T00:04:30.145Z,19.22
2017-07-24T00:04:56.307Z,19.26
2017-07-24T00:05:22.436Z,19.22
2017-07-24T00:05:48.571Z,19.33
2017-07-24T00:06:14.688Z,19.29
2017-07-24T00:06:40.814Z,19.15
2017-07-24T00:07:06.998Z,19.14
2017-07-24T00:07:33.111Z,19.11
2017-07-24T00:07:59.231Z,19.21
2017-07-24T00:08:25.382Z,19.12
2017-07-24T00:08:51.575Z,19.15
2017-07-24T00:09:17.731Z,19.11
2017-07-24T00:09:43.864Z,19.04
2017-07-24T00:10:10.043Z,19.09
2017-07-24T00:10:36.201Z,19.14
2017-07-24T00:11:02.349Z,19.04
2017-07-24T00:11:28.497Z,19.08
2017-07-24T00:11:54.603Z,19.09
2017-07-24T00:12:20.773Z,19.11
2017-07-24T00:12:46.939Z,19.16
2017-07-24T00:13:13.128Z,19.18
2017-07-24T00:13:39.304Z,19.09
2017-07-24T00:14:05.407Z,19.09
2017-07-24T00:14:31.573Z,19.09
2017-07-24T00:14:57.693Z,19.07
2017-07-24T00:15:23.852Z,19.02
2017-07-24T00:15:49.971Z,19.07
2017-07-24T00:16:16.085Z,19.08
2017-07-24T00:16:42.194Z,19.08
2017-07-24T00:17:08.288Z,19.07
2017-07-24T00:17:34.376Z,18.96
2017-07-24T00:18:00.482Z,19
2017-07-24T00:18:26.611Z,19.04
2017-07-24T00:18:52.748Z,19.07
2017-07-24T00:19:18.927Z,19.07
2017-07-24T00:19:45.047Z,19.04
2017-07-24T00:20:11.212Z,19.12
2017-07-24T00:20:37.364Z,19.15
2017-07-24T00:21:03.477Z,19.14
2017-07-24T00:21:29.607Z,19.14
2017-07-24T00:21:55.709Z,19.12
2017-07-24T00:22:21.848Z,19.09
2017-07-24T00:22:47.948Z,19.07
2017-07-24T00:23:14.083Z,19.07
2017-07-24T00:23:40.219Z,19.07
2017-07-24T00:24:06.347Z,19.04
2017-07-24T00:24:32.455Z,18.98
2017-07-24T00:24:58.595Z,18.98
2017-07-24T00:25:24.692Z,19.07
2017-07-24T00:25:50.825Z,19.08
2017-07-24T00:26:16.917Z,19.08
2017-07-24T00:26:43.104Z,19.09
2017-07-24T00:27:09.265Z,19.12
2017-07-24T00:27:35.412Z,19.04
2017-07-24T00:28:01.549Z,19.08
2017-07-24T00:28:27.656Z,19.09
2017-07-24T00:28:53.783Z,19.14
2017-07-24T00:29:19.923Z,19.22
2017-07-24T00:29:46.105Z,19.21
2017-07-24T00:30:12.239Z,19.12
2017-07-24T00:30:38.357Z,19.14
2017-07-24T00:31:04.508Z,19.22
2017-07-24T00:31:30.623Z,19.11
2017-07-24T00:31:56.814Z,19.11
2017-07-24T00:32:22.935Z,19.19
2017-07-24T00:32:49.049Z,19.14
2017-07-24T00:33:15.152Z,19.21
2017-07-24T00:33:41.286Z,19.12
2017-07-24T00:34:07.474Z,19.14
2017-07-24T00:34:33.574Z,19.12
2017-07-24T00:34:59.682Z,19.12
2017-07-24T00:35:25.827Z,19.09
2017-07-24T00:35:51.971Z,19.07
2017-07-24T00:36:18.093Z,18.96
2017-07-24T00:36:44.222Z,19
2017-07-24T00:37:10.333Z,19.04
2017-07-24T00:37:36.443Z,18.99
2017-07-24T00:38:02.571Z,19.09
2017-07-24T00:38:28.729Z,19.04
2017-07-24T00:38:54.873Z,19.07
2017-07-24T00:39:20.969Z,19.02
2017-07-24T00:39:47.131Z,19
2017-07-24T00:40:13.225Z,19
2017-07-24T00:40:39.364Z,19.04
2017-07-24T00:41:05.527Z,19
2017-07-24T00:41:31.626Z,18.98
2017-07-24T00:41:57.751Z,18.89
2017-07-24T00:42:23.920Z,19
2017-07-24T00:42:50.039Z,18.92
2017-07-24T00:43:16.229Z,19.04
2017-07-24T00:43:42.328Z,18.95
2017-07-24T00:44:08.489Z,19.04
2017-07-24T00:44:34.706Z,19.02
2017-07-24T00:45:00.884Z,19.09
2017-07-24T00:45:27.025Z,19.02
2017-07-24T00:45:53.155Z,18.93
2017-07-24T00:46:19.310Z,18.96
2017-07-24T00:46:45.450Z,18.99
2017-07-24T00:47:11.606Z,19.02
2017-07-24T00:47:37.694Z,19
2017-07-24T00:48:03.803Z,19.02
2017-07-24T00:48:29.928Z,18.9
2017-07-24T00:48:56.067Z,18.9
2017-07-24T00:49:22.255Z,18.89
2017-07-24T00:49:48.382Z,18.88
2017-07-24T00:50:14.499Z,18.86
2017-07-24T00:50:40.682Z,18.93
2017-07-24T00:51:06.869Z,18.99
2017-07-24T00:51:32.980Z,18.88
2017-07-24T00:51:59.104Z,18.88
2017-07-24T00:52:25.263Z,18.88
2017-07-24T00:52:51.379Z,18.84
2017-07-24T00:53:17.484Z,18.86
2017-07-24T00:53:43.623Z,18.93
2017-07-24T00:54:09.778Z,19.04
2017-07-24T00:54:35.908Z,18.99
2017-07-24T00:55:01.993Z,18.96
2017-07-24T00:55:28.094Z,18.98
2017-07-24T00:55:54.227Z,18.86
2017-07-24T00:56:20.400Z,18.89
2017-07-24T00:56:46.519Z,18.9
2017-07-24T00:57:12.681Z,18.89
2017-07-24T00:57:38.799Z,18.9
2017-07-24T00:58:04.914Z,18.93
2017-07-24T00:58:31.017Z,18.93
2017-07-24T00:58:57.168Z,18.99
2017-07-24T00:59:23.302Z,18.96
2017-07-24T00:59:49.419Z,18.93
2017-07-24T01:00:15.563Z,18.9
2017-07-24T01:00:41.725Z,19.04
2017-07-24T01:01:07.845Z,18.99
2017-07-24T01:01:33.984Z,18.93
2017-07-24T01:02:00.176Z,18.96
2017-07-24T01:02:26.318Z,18.9
2017-07-24T01:02:52.458Z,18.88
2017-07-24T01:03:18.594Z,18.88
2017-07-24T01:03:44.749Z,18.88
2017-07-24T01:04:10.925Z,18.86
2017-07-24T01:04:37.097Z,18.89
2017-07-24T01:05:03.188Z,18.81
2017-07-24T01:05:29.320Z,18.92
2017-07-24T01:05:55.445Z,18.9
2017-07-24T01:06:21.584Z,18.9
2017-07-24T01:06:47.714Z,18.99
2017-07-24T01:07:13.844Z,18.99
2017-07-24T01:07:39.986Z,19
2017-07-24T01:08:06.140Z,18.98
2017-07-24T01:08:32.270Z,18.99
2017-07-24T01:08:58.384Z,19.02
2017-07-24T01:09:24.508Z,19.08
2017-07-24T01:09:50.670Z,18.96
2017-07-24T01:10:16.813Z,19.09
2017-07-24T01:10:42.985Z,19.07
2017-07-24T01:11:09.146Z,19.07
2017-07-24T01:11:35.290Z,19
2017-07-24T01:12:01.454Z,18.99
2017-07-24T01:12:27.614Z,18.89
2017-07-24T01:12:53.739Z,18.92
2017-07-24T01:13:19.852Z,18.86
2017-07-24T01:13:45.957Z,18.9
2017-07-24T01:14:12.082Z,18.83
2017-07-24T01:14:38.171Z,18.77
2017-07-24T01:15:04.299Z,18.77
2017-07-24T01:15:30.442Z,18.73
2017-07-24T01:15:56.551Z,18.78
2017-07-24T01:16:22.728Z,18.8
2017-07-24T01:16:48.843Z,18.77
2017-07-24T01:17:14.978Z,18.71
2017-07-24T01:17:41.133Z,18.75
2017-07-24T01:18:07.273Z,18.8
2017-07-24T01:18:33.402Z,18.73
2017-07-24T01:18:59.590Z,18.65
2017-07-24T01:19:25.725Z,18.7
2017-07-24T01:19:51.849Z,18.71
2017-07-24T01:20:17.986Z,18.78
2017-07-24T01:20:44.101Z,18.77
2017-07-24T01:21:10.230Z,18.74
2017-07-24T01:21:36.343Z,18.78
2017-07-24T01:22:02.472Z,18.74
2017-07-24T01:22:28.578Z,18.68
2017-07-24T01:22:54.690Z,18.7
2017-07-24T01:23:20.862Z,18.66
2017-07-24T01:23:47.048Z,18.66
2017-07-24T01:24:13.187Z,18.63
2017-07-24T01:24:39.285Z,18.71
2017-07-24T01:25:05.445Z,18.77
2017-07-24T01:25:31.565Z,18.71
2017-07-24T01:25:57.677Z,18.77
2017-07-24T01:26:23.835Z,18.75
2017-07-24T01:26:49.987Z,18.71
2017-07-24T01:27:16.151Z,18.71
2017-07-24T01:27:42.288Z,18.63
2017-07-24T01:28:08.408Z,18.7
2017-07-24T01:28:34.568Z,18.58
2017-07-24T01:29:00.661Z,18.68
2017-07-24T01:29:26.750Z,18.63
2017-07-24T01:29:52.886Z,18.7
2017-07-24T01:30:19.006Z,18.66
2017-07-24T01:30:45.122Z,18.75
2017-07-24T01:31:11.336Z,18.75
2017-07-24T01:31:37.461Z,18.75
2017-07-24T01:32:03.615Z,18.74
2017-07-24T01:32:29.737Z,18.8
2017-07-24T01:32:55.853Z,18.71
2017-07-24T01:33:21.964Z,18.77
2017-07-24T01:33:48.084Z,18.75
2017-07-24T01:34:14.198Z,18.73
2017-07-24T01:34:40.384Z,18.77
2017-07-24T01:35:06.604Z,18.78
2017-07-24T01:35:32.768Z,18.77
2017-07-24T01:35:58.870Z,18.7
2017-07-24T01:36:25.005Z,18.75
2017-07-24T01:36:51.174Z,18.78
2017-07-24T01:37:17.320Z,18.7
2017-07-24T01:37:43.415Z,18.71
2017-07-24T01:38:09.549Z,18.81
2017-07-24T01:38:35.704Z,18.8
2017-07-24T01:39:01.820Z,18.81
2017-07-24T01:39:27.977Z,18.73
2017-07-24T01:39:54.112Z,18.7
2017-07-24T01:40:20.223Z,18.81
2017-07-24T01:40:46.348Z,18.73
2017-07-24T01:41:12.507Z,18.73
2017-07-24T01:41:38.597Z,18.8
2017-07-24T01:42:04.769Z,18.7
2017-07-24T01:42:30.930Z,18.74
2017-07-24T01:42:57.024Z,18.73
2017-07-24T01:43:23.160Z,18.78
2017-07-24T01:43:49.372Z,18.81
2017-07-24T01:44:15.547Z,18.8
2017-07-24T01:44:41.708Z,18.83
2017-07-24T01:45:07.845Z,18.75
2017-07-24T01:45:33.968Z,18.77
2017-07-24T01:46:00.099Z,18.73
2017-07-24T01:46:26.214Z,18.77
2017-07-24T01:46:52.331Z,18.73
2017-07-24T01:47:18.467Z,18.81
2017-07-24T01:47:44.593Z,18.71
2017-07-24T01:48:10.735Z,18.74
2017-07-24T01:48:36.891Z,18.8
2017-07-24T01:49:03.136Z,18.88
2017-07-24T01:49:29.296Z,18.86
2017-07-24T01:49:55.468Z,18.83
2017-07-24T01:50:21.583Z,18.8
2017-07-24T01:50:47.747Z,18.89
2017-07-24T01:51:13.843Z,18.8
2017-07-24T01:51:40.003Z,18.73
2017-07-24T01:52:06.110Z,18.77
2017-07-24T01:52:32.263Z,18.77
2017-07-24T01:52:58.357Z,18.75
2017-07-24T01:53:24.535Z,18.81
2017-07-24T01:53:50.697Z,18.83
2017-07-24T01:54:16.863Z,18.81
2017-07-24T01:54:43.010Z,18.88
2017-07-24T01:55:09.120Z,18.88
2017-07-24T01:55:35.266Z,18.86
2017-07-24T01:56:01.410Z,18.86
2017-07-24T01:56:27.570Z,18.83
2017-07-24T01:56:53.714Z,18.81
2017-07-24T01:57:19.879Z,18.78
2017-07-24T01:57:46.065Z,18.77
2017-07-24T01:58:12.216Z,18.73
2017-07-24T01:58:38.305Z,18.65
2017-07-24T01:59:04.462Z,18.68
2017-07-24T01:59:30.614Z,18.71
2017-07-24T01:59:56.739Z,18.71
2017-07-24T02:00:22.908Z,18.66
2017-07-24T02:00:49.023Z,18.68
2017-07-24T02:01:15.133Z,18.8
2017-07-24T02:01:41.285Z,18.7
2017-07-24T02:02:07.421Z,18.71
2017-07-24T02:02:33.582Z,18.77
2017-07-24T02:02:59.735Z,18.77
2017-07-24T02:03:25.876Z,18.77
2017-07-24T02:03:52.031Z,18.71
2017-07-24T02:04:18.193Z,18.71
2017-07-24T02:04:44.303Z,18.71
2017-07-24T02:05:10.429Z,18.75
2017-07-24T02:05:36.547Z,18.75
2017-07-24T02:06:02.731Z,18.88
2017-07-24T02:06:28.885Z,18.78
2017-07-24T02:06:55.001Z,18.9
2017-07-24T02:07:21.150Z,18.78
2017-07-24T02:07:47.313Z,18.86
2017-07-24T02:08:13.474Z,18.88
2017-07-24T02:08:39.576Z,18.86
2017-07-24T02:09:05.736Z,18.81
2017-07-24T02:09:31.852Z,18.75
2017-07-24T02:09:57.948Z,18.73
2017-07-24T02:10:24.136Z,18.88
2017-07-24T02:10:50.280Z,18.75
2017-07-24T02:11:16.460Z,18.88
2017-07-24T02:11:42.622Z,18.81
2017-07-24T02:12:08.745Z,18.77
2017-07-24T02:12:34.878Z,18.78
2017-07-24T02:13:00.992Z,18.81
2017-07-24T02:13:27.138Z,18.73
2017-07-24T02:13:53.272Z,18.83
2017-07-24T02:14:19.419Z,18.9
2017-07-24T02:14:45.509Z,18.71
2017-07-24T02:15:11.675Z,18.71
2017-07-24T02:15:37.796Z,18.73
2017-07-24T02:16:03.913Z,18.74
2017-07-24T02:16:30.070Z,18.78
2017-07-24T02:16:56.188Z,18.81
2017-07-24T02:17:22.349Z,18.81
2017-07-24T02:17:48.520Z,18.8
2017-07-24T02:18:14.609Z,18.78
2017-07-24T02:18:40.720Z,18.74
2017-07-24T02:19:06.869Z,18.77
2017-07-24T02:19:33.032Z,18.75
2017-07-24T02:19:59.184Z,18.83
2017-07-24T02:20:25.340Z,18.86
2017-07-24T02:20:51.474Z,18.83
2017-07-24T02:21:17.652Z,18.83
2017-07-24T02:21:43.812Z,18.9
2017-07-24T02:22:09.981Z,18.89
2017-07-24T02:22:36.130Z,18.9
2017-07-24T02:23:02.317Z,19
2017-07-24T02:23:28.532Z,19
2017-07-24T02:23:54.683Z,18.9
2017-07-24T02:24:20.823Z,18.9
2017-07-24T02:24:46.927Z,18.84
2017-07-24T02:25:13.114Z,18.92
2017-07-24T02:25:39.248Z,18.78
2017-07-24T02:26:05.399Z,18.83
2017-07-24T02:26:31.561Z,18.86
2017-07-24T02:26:57.649Z,18.74
2017-07-24T02:27:23.767Z,18.83
2017-07-24T02:27:49.889Z,18.81
2017-07-24T02:28:15.992Z,18.9
2017-07-24T02:28:42.127Z,18.8
2017-07-24T02:29:08.214Z,18.86
2017-07-24T02:29:34.342Z,18.88
2017-07-24T02:30:00.503Z,18.84
2017-07-24T02:30:26.667Z,18.84
2017-07-24T02:30:52.816Z,18.78
2017-07-24T02:31:18.951Z,18.81
2017-07-24T02:31:45.044Z,18.83
2017-07-24T02:32:11.181Z,18.84
2017-07-24T02:32:37.343Z,18.73
2017-07-24T02:33:03.464Z,18.78
2017-07-24T02:33:29.592Z,18.81
2017-07-24T02:33:55.734Z,18.74
2017-07-24T02:34:21.829Z,18.75
2017-07-24T02:34:48.015Z,18.83
2017-07-24T02:35:14.162Z,18.78
2017-07-24T02:35:40.301Z,18.81
2017-07-24T02:36:06.464Z,18.73
2017-07-24T02:36:32.669Z,18.77
2017-07-24T02:36:58.783Z,18.7
2017-07-24T02:37:24.940Z,18.75
2017-07-24T02:37:51.038Z,18.81
2017-07-24T02:38:17.177Z,18.81
2017-07-24T02:38:43.312Z,18.75
2017-07-24T02:39:09.469Z,18.77
2017-07-24T02:39:35.581Z,18.88
2017-07-24T02:40:01.705Z,18.86
2017-07-24T02:40:27.808Z,18.84
2017-07-24T02:40:53.974Z,18.83
2017-07-24T02:41:20.095Z,18.78
2017-07-24T02:41:46.286Z,18.71
2017-07-24T02:42:12.461Z,18.74
2017-07-24T02:42:38.620Z,18.8
2017-07-24T02:43:04.787Z,18.8
2017-07-24T02:43:30.912Z,18.75
2017-07-24T02:43:57.054Z,18.81
2017-07-24T02:44:23.214Z,18.71
2017-07-24T02:44:49.357Z,18.8
2017-07-24T02:45:15.547Z,18.73
2017-07-24T02:45:41.667Z,18.88
2017-07-24T02:46:07.857Z,18.84
2017-07-24T02:46:34.044Z,18.81
2017-07-24T02:47:00.192Z,18.81
2017-07-24T02:47:26.384Z,18.81
2017-07-24T02:47:52.538Z,18.81
2017-07-24T02:48:18.722Z,18.81
2017-07-24T02:48:44.887Z,18.86
2017-07-24T02:49:11.036Z,18.75
2017-07-24T02:49:37.170Z,18.83
2017-07-24T02:50:03.338Z,18.75
2017-07-24T02:50:29.489Z,18.78
2017-07-24T02:50:55.629Z,18.83
2017-07-24T02:51:21.840Z,18.78
2017-07-24T02:51:48.026Z,18.81
2017-07-24T02:52:14.165Z,18.78
2017-07-24T02:52:40.297Z,18.78
2017-07-24T02:53:06.460Z,18.81
2017-07-24T02:53:32.572Z,18.84
2017-07-24T02:53:58.723Z,18.84
2017-07-24T02:54:24.884Z,18.84
2017-07-24T02:54:50.998Z,18.83
2017-07-24T02:55:17.095Z,18.84
2017-07-24T02:55:43.245Z,18.89
2017-07-24T02:56:09.427Z,18.77
2017-07-24T02:56:35.584Z,18.84
2017-07-24T02:57:01.673Z,18.81
2017-07-24T02:57:27.800Z,18.7
2017-07-24T02:57:53.907Z,18.7
2017-07-24T02:58:20.110Z,18.68
2017-07-24T02:58:46.266Z,18.7
2017-07-24T02:59:12.405Z,18.7
2017-07-24T02:59:38.532Z,18.73
2017-07-24T03:00:04.666Z,18.78
2017-07-24T03:00:30.805Z,18.71
2017-07-24T03:00:56.957Z,18.77
2017-07-24T03:01:23.091Z,18.74
2017-07-24T03:01:49.207Z,18.77
2017-07-24T03:02:15.377Z,18.74
2017-07-24T03:02:41.537Z,18.7
2017-07-24T03:03:07.653Z,18.65
2017-07-24T03:03:33.768Z,18.68
2017-07-24T03:03:59.953Z,18.8
2017-07-24T03:04:26.049Z,18.74
2017-07-24T03:04:52.168Z,18.71
2017-07-24T03:05:18.376Z,18.71
2017-07-24T03:05:44.528Z,18.68
2017-07-24T03:06:10.646Z,18.74
2017-07-24T03:06:36.795Z,18.7
2017-07-24T03:07:02.909Z,18.77
2017-07-24T03:07:29.094Z,18.78
2017-07-24T03:07:55.216Z,18.77
2017-07-24T03:08:21.355Z,18.75
2017-07-24T03:08:47.462Z,18.83
2017-07-24T03:09:13.617Z,18.75
2017-07-24T03:09:39.733Z,18.78
2017-07-24T03:10:05.886Z,18.78
2017-07-24T03:10:32.046Z,18.86
2017-07-24T03:10:58.158Z,18.8
2017-07-24T03:11:24.259Z,18.89
2017-07-24T03:11:50.393Z,18.9
2017-07-24T03:12:16.507Z,18.83
2017-07-24T03:12:42.633Z,18.89
2017-07-24T03:13:08.746Z,18.88
2017-07-24T03:13:34.872Z,18.88
2017-07-24T03:14:01.034Z,18.88
2017-07-24T03:14:27.198Z,18.88
2017-07-24T03:14:53.347Z,18.88
2017-07-24T03:15:19.481Z,18.84
2017-07-24T03:15:45.574Z,18.88
2017-07-24T03:16:11.692Z,18.88
2017-07-24T03:16:37.877Z,18.86
2017-07-24T03:17:03.995Z,18.88
2017-07-24T03:17:30.185Z,18.74
2017-07-24T03:17:56.367Z,18.83
2017-07-24T03:18:22.515Z,18.73
2017-07-24T03:18:48.705Z,18.83
2017-07-24T03:19:14.849Z,18.83
2017-07-24T03:19:40.992Z,18.88
2017-07-24T03:20:07.126Z,18.89
2017-07-24T03:20:33.246Z,18.93
2017-07-24T03:20:59.359Z,19.02
2017-07-24T03:21:25.495Z,19.07
2017-07-24T03:21:51.591Z,19.08
2017-07-24T03:22:17.781Z,18.96
2017-07-24T03:22:43.912Z,19.08
2017-07-24T03:23:10.097Z,18.98
2017-07-24T03:23:36.211Z,19.08
2017-07-24T03:24:02.313Z,19.02
2017-07-24T03:24:28.421Z,19.07
2017-07-24T03:24:54.505Z,19.02
2017-07-24T03:25:20.632Z,19.08
2017-07-24T03:25:46.766Z,19.02
2017-07-24T03:26:12.933Z,19.07
2017-07-24T03:26:39.031Z,19.02
2017-07-24T03:27:05.220Z,19.07
2017-07-24T03:27:31.336Z,19.04
2017-07-24T03:27:57.425Z,18.88
2017-07-24T03:28:23.535Z,18.81
2017-07-24T03:28:49.632Z,18.84
2017-07-24T03:29:15.761Z,18.86
2017-07-24T03:29:41.881Z,18.86
2017-07-24T03:30:08.026Z,18.86
2017-07-24T03:30:34.215Z,18.8
2017-07-24T03:31:00.411Z,18.96
2017-07-24T03:31:26.556Z,18.83
2017-07-24T03:31:52.662Z,18.89
2017-07-24T03:32:18.758Z,18.89
2017-07-24T03:32:44.848Z,18.86
2017-07-24T03:33:10.981Z,18.96
2017-07-24T03:33:37.133Z,18.96
2017-07-24T03:34:03.248Z,18.84
2017-07-24T03:34:29.400Z,18.81
2017-07-24T03:34:55.519Z,18.8
2017-07-24T03:35:21.686Z,18.86
2017-07-24T03:35:47.837Z,18.75
2017-07-24T03:36:13.950Z,18.77
2017-07-24T03:36:40.107Z,18.68
2017-07-24T03:37:06.261Z,18.81
2017-07-24T03:37:32.376Z,18.78
2017-07-24T03:37:58.557Z,18.81
2017-07-24T03:38:24.692Z,18.77
2017-07-24T03:38:50.825Z,18.74
2017-07-24T03:39:16.974Z,18.75
2017-07-24T03:39:43.108Z,18.77
2017-07-24T03:40:09.273Z,18.74
2017-07-24T03:40:35.433Z,18.71
2017-07-24T03:41:01.573Z,18.73
2017-07-24T03:41:27.676Z,18.71
2017-07-24T03:41:53.812Z,18.71
2017-07-24T03:42:19.972Z,18.71
2017-07-24T03:42:46.102Z,18.73
2017-07-24T03:43:12.320Z,18.77
2017-07-24T03:43:38.462Z,18.71
2017-07-24T03:44:04.578Z,18.78
2017-07-24T03:44:30.714Z,18.7
2017-07-24T03:44:56.834Z,18.68
2017-07-24T03:45:22.998Z,18.77
2017-07-24T03:45:49.184Z,18.71
2017-07-24T03:46:15.377Z,18.8
2017-07-24T03:46:41.513Z,18.74
2017-07-24T03:47:07.677Z,18.74
2017-07-24T03:47:33.821Z,18.73
2017-07-24T03:47:59.926Z,18.74
2017-07-24T03:48:26.020Z,18.65
2017-07-24T03:48:52.186Z,18.63
2017-07-24T03:49:18.377Z,18.56
2017-07-24T03:49:44.503Z,18.68
2017-07-24T03:50:10.668Z,18.68
2017-07-24T03:50:36.827Z,18.65
2017-07-24T03:51:02.926Z,18.56
2017-07-24T03:51:29.077Z,18.65
2017-07-24T03:51:55.167Z,18.71
2017-07-24T03:52:21.303Z,18.63
2017-07-24T03:52:47.439Z,18.56
2017-07-24T03:53:13.589Z,18.59
2017-07-24T03:53:39.703Z,18.53
2017-07-24T03:54:05.808Z,18.62
2017-07-24T03:54:31.938Z,18.6
2017-07-24T03:54:58.076Z,18.6
2017-07-24T03:55:24.257Z,18.59
2017-07-24T03:55:50.422Z,18.66
2017-07-24T03:56:16.561Z,18.65
2017-07-24T03:56:42.682Z,18.66
2017-07-24T03:57:08.829Z,18.73
2017-07-24T03:57:34.963Z,18.74
2017-07-24T03:58:01.116Z,18.75
2017-07-24T03:58:27.228Z,18.78
2017-07-24T03:58:53.329Z,18.8
2017-07-24T03:59:19.462Z,18.8
2017-07-24T03:59:45.601Z,18.75
2017-07-24T04:00:11.801Z,18.75
2017-07-24T04:00:37.959Z,18.73
2017-07-24T04:01:04.100Z,18.7
2017-07-24T04:01:30.294Z,18.65
2017-07-24T04:01:56.453Z,18.71
2017-07-24T04:02:22.600Z,18.68
2017-07-24T04:02:48.733Z,18.68
2017-07-24T04:03:14.894Z,18.6
2017-07-24T04:03:41.046Z,18.6
2017-07-24T04:04:07.234Z,18.6
2017-07-24T04:04:33.350Z,18.52
2017-07-24T04:04:59.495Z,18.59
2017-07-24T04:05:25.654Z,18.62
2017-07-24T04:05:51.746Z,18.62
2017-07-24T04:06:17.887Z,18.62
2017-07-24T04:06:44.021Z,18.52
2017-07-24T04:07:10.117Z,18.53
2017-07-24T04:07:36.231Z,18.52
2017-07-24T04:08:02.337Z,18.56
2017-07-24T04:08:28.465Z,18.52
2017-07-24T04:08:54.553Z,18.56
2017-07-24T04:09:20.655Z,18.59
2017-07-24T04:09:46.788Z,18.53
2017-07-24T04:10:12.946Z,18.52
2017-07-24T04:10:39.073Z,18.58
2017-07-24T04:11:05.234Z,18.52
2017-07-24T04:11:31.324Z,18.5
2017-07-24T04:11:57.446Z,18.5
2017-07-24T04:12:23.550Z,18.53
2017-07-24T04:12:49.671Z,18.53
2017-07-24T04:13:15.810Z,18.62
2017-07-24T04:13:41.938Z,18.59
2017-07-24T04:14:08.091Z,18.52
2017-07-24T04:14:34.197Z,18.5
2017-07-24T04:15:00.338Z,18.59
2017-07-24T04:15:26.460Z,18.62
2017-07-24T04:15:52.594Z,18.62
2017-07-24T04:16:18.744Z,18.63
2017-07-24T04:16:44.858Z,18.62
2017-07-24T04:17:11.021Z,18.56
2017-07-24T04:17:37.142Z,18.59
2017-07-24T04:18:03.252Z,18.52
2017-07-24T04:18:29.383Z,18.5
2017-07-24T04:18:55.482Z,18.56
2017-07-24T04:19:21.583Z,18.49
2017-07-24T04:19:47.677Z,18.53
2017-07-24T04:20:13.819Z,18.43
2017-07-24T04:20:39.955Z,18.43
2017-07-24T04:21:06.046Z,18.38
2017-07-24T04:21:32.159Z,18.38
2017-07-24T04:21:58.339Z,18.43
2017-07-24T04:22:24.468Z,18.35
2017-07-24T04:22:50.583Z,18.29
2017-07-24T04:23:16.790Z,18.41
2017-07-24T04:23:42.976Z,18.35
2017-07-24T04:24:09.064Z,18.4
2017-07-24T04:24:35.187Z,18.37
2017-07-24T04:25:01.328Z,18.44
2017-07-24T04:25:27.512Z,18.41
2017-07-24T04:25:53.640Z,18.38
2017-07-24T04:26:19.729Z,18.49
2017-07-24T04:26:45.913Z,18.37
2017-07-24T04:27:12.044Z,18.4
2017-07-24T04:27:38.205Z,18.45
2017-07-24T04:28:04.304Z,18.43
2017-07-24T04:28:30.463Z,18.43
2017-07-24T04:28:56.606Z,18.5
2017-07-24T04:29:22.754Z,18.4
2017-07-24T04:29:48.913Z,18.44
2017-07-24T04:30:15.060Z,18.38
2017-07-24T04:30:41.192Z,18.38
2017-07-24T04:31:07.326Z,18.37
2017-07-24T04:31:33.431Z,18.38
2017-07-24T04:31:59.532Z,18.33
2017-07-24T04:32:25.646Z,18.37
2017-07-24T04:32:51.767Z,18.28
2017-07-24T04:33:17.930Z,18.34
2017-07-24T04:33:44.102Z,18.4
2017-07-24T04:34:10.215Z,18.37
2017-07-24T04:34:36.404Z,18.43
2017-07-24T04:35:02.529Z,18.31
2017-07-24T04:35:28.667Z,18.31
2017-07-24T04:35:54.801Z,18.35
2017-07-24T04:36:20.921Z,18.41
2017-07-24T04:36:47.110Z,18.41
2017-07-24T04:37:13.230Z,18.38
2017-07-24T04:37:39.341Z,18.4
2017-07-24T04:38:05.522Z,18.38
2017-07-24T04:38:31.622Z,18.29
2017-07-24T04:38:57.736Z,18.33
2017-07-24T04:39:23.872Z,18.23
2017-07-24T04:39:50.025Z,18.25
2017-07-24T04:40:16.145Z,18.34
2017-07-24T04:40:42.264Z,18.25
2017-07-24T04:41:08.421Z,18.29
2017-07-24T04:41:34.566Z,18.31
2017-07-24T04:42:00.689Z,18.28
2017-07-24T04:42:26.779Z,18.29
2017-07-24T04:42:52.940Z,18.28
2017-07-24T04:43:19.092Z,18.31
2017-07-24T04:43:45.182Z,18.23
2017-07-24T04:44:11.337Z,18.23
2017-07-24T04:44:37.497Z,18.19
2017-07-24T04:45:03.585Z,18.25
2017-07-24T04:45:29.686Z,18.23
2017-07-24T04:45:55.847Z,18.25
2017-07-24T04:46:21.963Z,18.29
2017-07-24T04:46:48.111Z,18.33
2017-07-24T04:47:14.235Z,18.31
2017-07-24T04:47:40.362Z,18.28
2017-07-24T04:48:06.494Z,18.26
2017-07-24T04:48:32.580Z,18.26
2017-07-24T04:48:58.705Z,18.29
2017-07-24T04:49:24.839Z,18.31
2017-07-24T04:49:50.930Z,18.31
2017-07-24T04:50:17.050Z,18.28
2017-07-24T04:50:43.211Z,18.22
2017-07-24T04:51:09.330Z,18.26
2017-07-24T04:51:35.421Z,18.29
2017-07-24T04:52:01.555Z,18.23
2017-07-24T04:52:27.708Z,18.28
2017-07-24T04:52:53.826Z,18.37
2017-07-24T04:53:19.955Z,18.23
2017-07-24T04:53:46.082Z,18.16
2017-07-24T04:54:12.197Z,18.08
2017-07-24T04:54:38.301Z,18.08
2017-07-24T04:55:04.462Z,18.16
2017-07-24T04:55:30.627Z,18.22
2017-07-24T04:55:56.802Z,18.25
2017-07-24T04:56:22.961Z,18.18
2017-07-24T04:56:49.101Z,18.13
2017-07-24T04:57:15.245Z,18.19
2017-07-24T04:57:41.353Z,18.22
2017-07-24T04:58:07.503Z,18.26
2017-07-24T04:58:33.661Z,18.28
2017-07-24T04:58:59.800Z,18.08
2017-07-24T04:59:25.954Z,18.2
2017-07-24T04:59:52.058Z,18.07
2017-07-24T05:00:18.176Z,18.03
2017-07-24T05:00:44.297Z,18
2017-07-24T05:01:10.487Z,17.98
2017-07-24T05:01:36.581Z,17.92
2017-07-24T05:02:02.720Z,18.01
2017-07-24T05:02:28.930Z,18.01
2017-07-24T05:02:55.081Z,18.03
2017-07-24T05:03:21.191Z,18.01
2017-07-24T05:03:47.372Z,18.05
2017-07-24T05:04:13.489Z,18.08
2017-07-24T05:04:39.592Z,17.97
2017-07-24T05:05:05.763Z,18
2017-07-24T05:05:31.877Z,17.83
2017-07-24T05:05:58.013Z,17.92
2017-07-24T05:06:24.165Z,17.82
2017-07-24T05:06:50.279Z,17.9
2017-07-24T05:07:16.436Z,18
2017-07-24T05:07:42.589Z,18
2017-07-24T05:08:08.727Z,17.92
2017-07-24T05:08:34.831Z,17.9
2017-07-24T05:09:00.989Z,18
2017-07-24T05:09:27.130Z,17.95
2017-07-24T05:09:53.249Z,17.94
2017-07-24T05:10:19.365Z,18.04
2017-07-24T05:10:45.549Z,17.87
2017-07-24T05:11:11.705Z,17.83
2017-07-24T05:11:37.820Z,17.95
2017-07-24T05:12:03.977Z,17.95
2017-07-24T05:12:30.084Z,17.94
2017-07-24T05:12:56.217Z,17.98
2017-07-24T05:13:22.345Z,18
2017-07-24T05:13:48.508Z,17.94
2017-07-24T05:14:14.625Z,17.9
2017-07-24T05:14:40.748Z,17.92
2017-07-24T05:15:06.871Z,17.97
2017-07-24T05:15:33.050Z,17.9
2017-07-24T05:15:59.209Z,17.9
2017-07-24T05:16:25.350Z,18
2017-07-24T05:16:51.471Z,17.97
2017-07-24T05:17:17.632Z,18.04
2017-07-24T05:17:43.723Z,18.1
2017-07-24T05:18:09.892Z,18.07
2017-07-24T05:18:36.027Z,18.07
2017-07-24T05:19:02.120Z,18.16
2017-07-24T05:19:28.260Z,18.13
2017-07-24T05:19:54.370Z,18.13
2017-07-24T05:20:20.489Z,18.16
2017-07-24T05:20:46.642Z,18.26
2017-07-24T05:21:12.734Z,18.22
2017-07-24T05:21:38.856Z,18.19
2017-07-24T05:22:04.989Z,18.15
2017-07-24T05:22:31.082Z,18.1
2017-07-24T05:22:57.171Z,18.25
2017-07-24T05:23:23.306Z,18.26
2017-07-24T05:23:49.404Z,18.35
2017-07-24T05:24:15.518Z,18.29
2017-07-24T05:24:41.674Z,18.28
2017-07-24T05:25:07.804Z,18.28
2017-07-24T05:25:33.893Z,18.26
2017-07-24T05:26:00.021Z,18.28
2017-07-24T05:26:26.488Z,18.18
2017-07-24T05:26:52.623Z,18.2
2017-07-24T05:27:18.769Z,18.22
2017-07-24T05:27:44.861Z,18.22
2017-07-24T05:28:11.046Z,18.07
2017-07-24T05:28:37.147Z,18.2
2017-07-24T05:29:03.264Z,18.18
2017-07-24T05:29:29.414Z,18.19
2017-07-24T05:29:55.548Z,18.15
2017-07-24T05:30:21.660Z,18.05
2017-07-24T05:30:47.834Z,18
2017-07-24T05:31:13.994Z,18.07
2017-07-24T05:31:40.085Z,18.15
2017-07-24T05:32:06.219Z,18.07
2017-07-24T05:32:32.353Z,18.03
2017-07-24T05:32:58.507Z,18.03
2017-07-24T05:33:24.614Z,18
2017-07-24T05:33:50.754Z,17.95
2017-07-24T05:34:16.991Z,18.04
2017-07-24T05:34:43.271Z,18.03
2017-07-24T05:35:09.382Z,17.98
2017-07-24T05:35:35.476Z,18.1
2017-07-24T05:36:01.609Z,18.1
2017-07-24T05:36:27.754Z,17.97
2017-07-24T05:36:53.984Z,17.98
2017-07-24T05:37:20.181Z,17.92
2017-07-24T05:37:46.330Z,17.87
2017-07-24T05:38:12.445Z,17.94
2017-07-24T05:38:38.577Z,17.85